createdAt,value
2019-02-09T00:02:04.588Z,9.16
2019-02-09T00:04:36.618Z,9.18
2019-02-09T00:07:08.890Z,9.16
2019-02-09T00:09:41.142Z,9.17
2019-02-09T00:12:13.434Z,9.16
2019-02-09T00:14:45.350Z,9.17
2019-02-09T00:17:17.302Z,9.16
2019-02-09T00:19:49.512Z,9.17
2019-02-09T00:22:21.422Z,9.18
2019-02-09T00:24:53.342Z,9.18
2019-02-09T00:27:25.328Z,9.19
2019-02-09T00:29:57.250Z,9.20
2019-02-09T00:32:29.165Z,9.23
2019-02-09T00:35:01.089Z,9.22
2019-02-09T00:37:33.159Z,9.23
2019-02-09T00:40:09.530Z,9.24
2019-02-09T00:42:41.528Z,9.24
2019-02-09T00:45:17.383Z,9.24
2019-02-09T00:47:49.310Z,9.24
2019-02-09T00:50:22.030Z,9.26
2019-02-09T00:52:53.939Z,9.25
2019-02-09T00:55:27.640Z,9.26
2019-02-09T00:57:59.763Z,9.26
2019-02-09T01:00:33.660Z,9.26
2019-02-09T01:03:05.948Z,9.26
2019-02-09T01:05:44.619Z,9.27
2019-02-09T01:08:17.539Z,9.28
2019-02-09T01:10:49.535Z,9.27
2019-02-09T01:13:21.622Z,9.26
2019-02-09T01:15:53.608Z,9.26
2019-02-09T01:18:25.870Z,9.25
2019-02-09T01:20:57.883Z,9.25
2019-02-09T01:23:29.792Z,9.26
2019-02-09T01:26:02.074Z,9.27
2019-02-09T01:28:34.004Z,9.28
2019-02-09T01:31:06.180Z,9.28
2019-02-09T01:33:38.102Z,9.28
2019-02-09T01:36:10.034Z,9.30
2019-02-09T01:38:42.510Z,9.30
2019-02-09T01:41:14.430Z,9.32
2019-02-09T01:43:46.339Z,9.33
2019-02-09T01:46:18.423Z,9.31
2019-02-09T01:48:50.607Z,9.31
2019-02-09T01:51:22.623Z,9.30
2019-02-09T01:53:54.580Z,9.29
2019-02-09T01:56:26.497Z,9.28
2019-02-09T01:58:58.409Z,9.28
2019-02-09T02:01:30.411Z,9.29
2019-02-09T02:04:02.395Z,9.31
2019-02-09T02:06:34.536Z,9.30
2019-02-09T02:09:08.284Z,9.30
2019-02-09T02:11:40.209Z,9.31
2019-02-09T02:14:12.255Z,9.32
2019-02-09T02:16:44.250Z,9.31
2019-02-09T02:19:16.164Z,9.32
2019-02-09T02:21:48.099Z,9.31
2019-02-09T02:24:20.077Z,9.30
2019-02-09T02:26:52.045Z,9.30
2019-02-09T02:29:23.959Z,9.31
2019-02-09T02:31:56.893Z,9.31
2019-02-09T02:34:28.813Z,9.32
2019-02-09T02:37:00.727Z,9.32
2019-02-09T02:39:32.649Z,9.31
2019-02-09T02:42:04.572Z,9.32
2019-02-09T02:44:36.513Z,9.32
2019-02-09T02:47:08.597Z,9.32
2019-02-09T02:49:40.796Z,9.30
2019-02-09T02:52:12.775Z,9.30
2019-02-09T02:54:44.831Z,9.29
2019-02-09T02:57:17.075Z,9.28
2019-02-09T02:59:49.018Z,9.27
2019-02-09T03:02:20.924Z,9.25
2019-02-09T03:04:52.846Z,9.24
2019-02-09T03:07:24.757Z,9.24
2019-02-09T03:09:56.748Z,9.23
2019-02-09T03:12:28.830Z,9.22
2019-02-09T03:15:01.023Z,9.22
2019-02-09T03:17:32.936Z,9.22
2019-02-09T03:20:09.503Z,9.21
2019-02-09T03:22:41.717Z,9.22
2019-02-09T03:25:20.416Z,9.22
2019-02-09T03:27:52.330Z,9.22
2019-02-09T03:30:25.650Z,9.22
2019-02-09T03:32:58.386Z,9.24
2019-02-09T03:35:30.370Z,9.25
2019-02-09T03:38:02.291Z,9.24
2019-02-09T03:40:51.691Z,9.22
2019-02-09T03:43:23.684Z,9.22
2019-02-09T03:45:56.533Z,9.22
2019-02-09T03:48:28.530Z,9.23
2019-02-09T03:51:00.788Z,9.23
2019-02-09T03:53:32.788Z,9.22
2019-02-09T03:56:04.809Z,9.22
2019-02-09T03:58:36.833Z,9.20
2019-02-09T04:01:08.795Z,9.17
2019-02-09T04:03:41.006Z,9.17
2019-02-09T04:06:12.914Z,9.17
2019-02-09T04:08:44.885Z,9.17
2019-02-09T04:11:16.777Z,9.17
2019-02-09T04:13:48.699Z,9.17
2019-02-09T04:16:20.714Z,9.16
2019-02-09T04:18:52.615Z,9.17
2019-02-09T04:21:24.624Z,9.16
2019-02-09T04:23:56.533Z,9.16
2019-02-09T04:26:28.481Z,9.14
2019-02-09T04:29:00.742Z,9.15
2019-02-09T04:31:32.658Z,9.14
2019-02-09T04:34:04.643Z,9.13
2019-02-09T04:36:36.555Z,9.13
2019-02-09T04:39:08.550Z,9.14
2019-02-09T04:41:40.462Z,9.11
2019-02-09T04:44:12.720Z,9.10
2019-02-09T04:46:44.641Z,9.10
2019-02-09T04:49:16.584Z,9.09
2019-02-09T04:51:48.673Z,9.08
2019-02-09T04:54:20.564Z,9.08
2019-02-09T04:56:52.851Z,9.06
2019-02-09T04:59:26.507Z,9.06
2019-02-09T05:01:58.828Z,9.05
2019-02-09T05:04:30.805Z,9.05
2019-02-09T05:07:02.796Z,9.04
2019-02-09T05:09:34.774Z,9.05
2019-02-09T05:12:06.874Z,9.06
2019-02-09T05:14:38.780Z,9.08
2019-02-09T05:17:10.700Z,9.11
2019-02-09T05:19:42.889Z,9.08
2019-02-09T05:22:14.871Z,9.10
2019-02-09T05:24:46.779Z,9.11
2019-02-09T05:27:18.959Z,9.12
2019-02-09T05:29:51.543Z,9.13
2019-02-09T05:32:23.621Z,9.13
2019-02-09T05:34:55.706Z,9.13
2019-02-09T05:37:29.213Z,9.13
2019-02-09T05:40:01.138Z,9.15
2019-02-09T05:42:33.038Z,9.13
2019-02-09T05:45:15.087Z,9.11
2019-02-09T05:47:47.360Z,9.08
2019-02-09T05:50:21.174Z,9.08
2019-02-09T05:52:53.782Z,9.09
2019-02-09T05:55:25.722Z,9.10
2019-02-09T05:57:57.894Z,9.10
2019-02-09T06:00:42.166Z,9.10
2019-02-09T06:03:14.348Z,9.10
2019-02-09T06:05:46.280Z,9.10
2019-02-09T06:08:18.195Z,9.12
2019-02-09T06:10:50.100Z,9.12
2019-02-09T06:13:22.024Z,9.13
2019-02-09T06:15:53.923Z,9.12
2019-02-09T06:18:25.848Z,9.12
2019-02-09T06:20:57.764Z,9.12
2019-02-09T06:23:29.701Z,9.10
2019-02-09T06:26:03.687Z,9.10
2019-02-09T06:28:35.233Z,9.10
2019-02-09T06:31:07.173Z,9.08
2019-02-09T06:33:39.081Z,9.08
2019-02-09T06:36:11.091Z,9.07
2019-02-09T06:38:43.062Z,9.07
2019-02-09T06:41:15.047Z,9.08
2019-02-09T06:43:47.129Z,9.08
2019-02-09T06:46:19.319Z,9.07
2019-02-09T06:48:51.224Z,9.05
2019-02-09T06:51:23.148Z,9.06
2019-02-09T06:53:55.058Z,9.06
2019-02-09T06:56:27.823Z,9.06
2019-02-09T06:59:00.092Z,9.07
2019-02-09T07:01:31.997Z,9.10
2019-02-09T07:04:04.174Z,9.12
2019-02-09T07:06:36.072Z,9.12
2019-02-09T07:09:09.231Z,9.12
2019-02-09T07:11:42.738Z,9.13
2019-02-09T07:14:14.654Z,9.13
2019-02-09T07:16:46.563Z,9.14
2019-02-09T07:19:18.485Z,9.16
2019-02-09T07:21:50.395Z,9.17
2019-02-09T07:24:22.686Z,9.18
2019-02-09T07:26:54.678Z,9.19
2019-02-09T07:29:26.603Z,9.19
2019-02-09T07:31:58.675Z,9.20
2019-02-09T07:34:30.663Z,9.19
2019-02-09T07:37:02.573Z,9.20
2019-02-09T07:39:34.512Z,9.21
2019-02-09T07:42:06.428Z,9.22
2019-02-09T07:44:38.344Z,9.25
2019-02-09T07:47:10.336Z,9.27
2019-02-09T07:49:42.237Z,9.28
2019-02-09T07:52:14.168Z,9.29
2019-02-09T07:54:46.137Z,9.30
2019-02-09T07:57:18.426Z,9.30
2019-02-09T07:59:50.340Z,9.31
2019-02-09T08:02:22.261Z,9.31
2019-02-09T08:04:54.191Z,9.32
2019-02-09T08:07:26.113Z,9.32
2019-02-09T08:09:58.039Z,9.33
2019-02-09T08:12:30.310Z,9.35
2019-02-09T08:15:02.574Z,9.40
2019-02-09T08:17:34.499Z,9.44
2019-02-09T08:20:11.037Z,9.49
2019-02-09T08:22:43.016Z,9.52
2019-02-09T08:25:21.251Z,9.55
2019-02-09T08:27:54.203Z,9.57
2019-02-09T08:30:30.780Z,9.60
2019-02-09T08:33:02.696Z,9.64
2019-02-09T08:35:34.739Z,9.70
2019-02-09T08:38:07.768Z,9.73
2019-02-09T08:40:40.107Z,9.77
2019-02-09T08:43:12.025Z,9.81
2019-02-09T08:45:43.938Z,9.83
2019-02-09T08:48:15.844Z,9.83
2019-02-09T08:51:03.899Z,9.83
2019-02-09T08:53:35.800Z,9.85
2019-02-09T08:56:07.775Z,9.86
2019-02-09T08:58:39.690Z,9.88
2019-02-09T09:01:11.681Z,9.85
2019-02-09T09:03:43.655Z,9.85
2019-02-09T09:06:15.847Z,9.82
2019-02-09T09:08:47.765Z,9.82
2019-02-09T09:11:19.680Z,9.82
2019-02-09T09:13:51.599Z,9.85
2019-02-09T09:16:23.802Z,9.89
2019-02-09T09:18:55.743Z,9.92
2019-02-09T09:21:27.650Z,9.98
2019-02-09T09:23:59.590Z,10.03
2019-02-09T09:26:31.524Z,10.10
2019-02-09T09:29:03.531Z,10.13
2019-02-09T09:31:35.515Z,10.17
2019-02-09T09:34:07.512Z,10.21
2019-02-09T09:36:39.599Z,10.23
2019-02-09T09:39:11.517Z,10.25
2019-02-09T09:41:43.575Z,10.28
2019-02-09T09:44:16.329Z,10.30
2019-02-09T09:46:48.304Z,10.33
2019-02-09T09:49:20.224Z,10.35
2019-02-09T09:51:52.219Z,10.35
2019-02-09T09:54:24.159Z,10.38
2019-02-09T09:56:56.068Z,10.42
2019-02-09T09:59:27.994Z,10.47
2019-02-09T10:02:00.549Z,10.53
2019-02-09T10:04:32.863Z,10.58
2019-02-09T10:07:04.941Z,10.63
2019-02-09T10:09:36.869Z,10.68
2019-02-09T10:12:08.793Z,10.72
2019-02-09T10:14:40.721Z,10.77
2019-02-09T10:17:12.637Z,10.79
2019-02-09T10:19:44.644Z,10.80
2019-02-09T10:22:16.553Z,10.82
2019-02-09T10:24:48.798Z,10.82
2019-02-09T10:27:20.723Z,10.83
2019-02-09T10:29:52.926Z,10.84
2019-02-09T10:32:25.185Z,10.85
2019-02-09T10:34:57.468Z,10.89
2019-02-09T10:37:29.478Z,10.95
2019-02-09T10:40:01.713Z,11.01
2019-02-09T10:42:33.635Z,11.11
2019-02-09T10:45:10.196Z,11.17
2019-02-09T10:47:42.110Z,11.19
2019-02-09T10:50:24.397Z,11.20
2019-02-09T10:52:56.461Z,11.23
2019-02-09T10:55:28.744Z,11.27
2019-02-09T10:58:01.116Z,11.31
2019-02-09T11:00:39.954Z,11.29
2019-02-09T11:03:12.424Z,11.28
2019-02-09T11:05:44.416Z,11.27
2019-02-09T11:08:16.653Z,11.27
2019-02-09T11:10:48.723Z,11.27
2019-02-09T11:13:20.722Z,11.32
2019-02-09T11:15:52.649Z,11.35
2019-02-09T11:18:24.675Z,11.35
2019-02-09T11:20:56.666Z,11.35
2019-02-09T11:23:28.593Z,11.34
2019-02-09T11:26:00.793Z,11.36
2019-02-09T11:28:33.088Z,11.37
2019-02-09T11:31:05.674Z,11.42
2019-02-09T11:33:37.869Z,11.48
2019-02-09T11:36:09.802Z,11.54
2019-02-09T11:38:41.789Z,11.57
2019-02-09T11:41:13.736Z,11.60
2019-02-09T11:43:45.989Z,11.60
2019-02-09T11:46:19.933Z,11.59
2019-02-09T11:48:51.875Z,11.56
2019-02-09T11:51:23.795Z,11.53
2019-02-09T11:53:55.885Z,11.49
2019-02-09T11:56:27.886Z,11.45
2019-02-09T11:59:00.090Z,11.42
2019-02-09T12:01:32.012Z,11.38
2019-02-09T12:04:04.336Z,11.32
2019-02-09T12:06:36.539Z,11.22
2019-02-09T12:09:09.398Z,11.09
2019-02-09T12:11:41.327Z,10.97
2019-02-09T12:14:13.246Z,10.85
2019-02-09T12:16:45.243Z,10.70
2019-02-09T12:19:17.167Z,10.60
2019-02-09T12:21:49.104Z,10.54
2019-02-09T12:24:21.412Z,10.53
2019-02-09T12:26:53.752Z,10.52
2019-02-09T12:29:25.664Z,10.55
2019-02-09T12:31:57.584Z,10.56
2019-02-09T12:34:29.841Z,10.55
2019-02-09T12:37:01.882Z,10.57
2019-02-09T12:39:33.809Z,10.57
2019-02-09T12:42:05.804Z,10.56
2019-02-09T12:44:37.990Z,10.59
2019-02-09T12:47:09.935Z,10.63
2019-02-09T12:49:41.852Z,10.65
2019-02-09T12:52:13.790Z,10.70
2019-02-09T12:54:45.706Z,10.73
2019-02-09T12:57:17.652Z,10.76
2019-02-09T12:59:49.692Z,10.77
2019-02-09T13:02:21.992Z,10.76
2019-02-09T13:04:53.976Z,10.77
2019-02-09T13:07:25.899Z,10.79
2019-02-09T13:09:57.829Z,10.81
2019-02-09T13:12:29.828Z,10.84
2019-02-09T13:15:01.899Z,10.86
2019-02-09T13:17:34.394Z,10.86
2019-02-09T13:20:13.586Z,10.88
2019-02-09T13:22:45.522Z,10.89
2019-02-09T13:25:17.920Z,10.90
2019-02-09T13:27:50.741Z,10.91
2019-02-09T13:30:32.455Z,10.90
2019-02-09T13:33:04.784Z,10.89
2019-02-09T13:35:36.714Z,10.88
2019-02-09T13:38:08.740Z,10.89
2019-02-09T13:40:40.665Z,10.90
2019-02-09T13:43:12.960Z,10.91
2019-02-09T13:45:49.602Z,10.91
2019-02-09T13:48:21.541Z,10.92
2019-02-09T13:50:53.679Z,10.91
2019-02-09T13:53:25.978Z,10.92
2019-02-09T13:55:57.919Z,10.92
2019-02-09T13:58:29.852Z,10.93
2019-02-09T14:01:03.639Z,10.93
2019-02-09T14:03:35.762Z,10.93
2019-02-09T14:06:08.457Z,10.92
2019-02-09T14:08:40.744Z,10.90
2019-02-09T14:11:12.707Z,10.90
2019-02-09T14:13:44.638Z,10.91
2019-02-09T14:16:16.887Z,10.89
2019-02-09T14:18:48.886Z,10.90
2019-02-09T14:21:21.122Z,10.89
2019-02-09T14:23:53.090Z,10.89
2019-02-09T14:26:25.003Z,10.90
2019-02-09T14:28:57.223Z,10.90
2019-02-09T14:31:29.246Z,10.91
2019-02-09T14:34:01.236Z,10.92
2019-02-09T14:36:33.530Z,10.91
2019-02-09T14:39:10.314Z,10.91
2019-02-09T14:41:42.246Z,10.91
2019-02-09T14:44:14.183Z,10.92
2019-02-09T14:46:48.859Z,10.92
2019-02-09T14:49:20.853Z,10.94
2019-02-09T14:51:52.778Z,10.94
2019-02-09T14:54:24.812Z,10.95
2019-02-09T14:56:57.114Z,10.94
2019-02-09T14:59:29.389Z,10.94
2019-02-09T15:02:01.796Z,10.93
2019-02-09T15:04:35.068Z,10.92
2019-02-09T15:07:07.001Z,10.89
2019-02-09T15:09:39.293Z,10.88
2019-02-09T15:12:11.222Z,10.86
2019-02-09T15:14:43.217Z,10.82
2019-02-09T15:17:15.153Z,10.83
2019-02-09T15:19:47.236Z,10.80
2019-02-09T15:22:19.187Z,10.78
2019-02-09T15:24:51.174Z,10.75
2019-02-09T15:27:23.241Z,10.72
2019-02-09T15:29:55.614Z,10.70
2019-02-09T15:32:27.602Z,10.69
2019-02-09T15:34:59.536Z,10.68
2019-02-09T15:37:31.818Z,10.65
2019-02-09T15:40:05.410Z,10.66
2019-02-09T15:42:37.337Z,10.65
2019-02-09T15:45:21.922Z,10.64
2019-02-09T15:47:54.237Z,10.66
2019-02-09T15:50:26.265Z,10.65
2019-02-09T15:52:58.273Z,10.64
2019-02-09T15:55:30.516Z,10.64
2019-02-09T15:58:02.472Z,10.63
2019-02-09T16:00:34.462Z,10.62
2019-02-09T16:03:07.010Z,10.60
2019-02-09T16:05:38.931Z,10.58
2019-02-09T16:08:10.999Z,10.56
2019-02-09T16:10:42.923Z,10.53
2019-02-09T16:13:14.851Z,10.50
2019-02-09T16:15:46.846Z,10.50
2019-02-09T16:18:19.041Z,10.48
2019-02-09T16:20:50.993Z,10.47
2019-02-09T16:23:22.935Z,10.44
2019-02-09T16:25:54.855Z,10.45
2019-02-09T16:28:26.801Z,10.42
2019-02-09T16:30:58.851Z,10.38
2019-02-09T16:33:30.806Z,10.34
2019-02-09T16:36:02.743Z,10.36
2019-02-09T16:38:35.149Z,10.37
2019-02-09T16:41:07.494Z,10.32
2019-02-09T16:43:39.430Z,10.27
2019-02-09T16:46:11.416Z,10.23
2019-02-09T16:48:43.338Z,10.19
2019-02-09T16:51:15.292Z,10.15
2019-02-09T16:53:47.204Z,10.13
2019-02-09T16:56:19.138Z,10.07
2019-02-09T16:58:51.430Z,10.02
2019-02-09T17:01:23.333Z,9.99
2019-02-09T17:03:55.339Z,9.97
2019-02-09T17:06:27.279Z,9.93
2019-02-09T17:08:59.167Z,9.91
2019-02-09T17:11:31.119Z,9.90
2019-02-09T17:14:03.340Z,9.90
2019-02-09T17:16:35.601Z,9.87
2019-02-09T17:19:07.558Z,9.87
2019-02-09T17:21:39.526Z,9.86
2019-02-09T17:24:11.438Z,9.83
2019-02-09T17:26:43.338Z,9.80
2019-02-09T17:29:15.346Z,9.78
2019-02-09T17:31:47.241Z,9.76
2019-02-09T17:34:19.193Z,9.72
2019-02-09T17:36:51.119Z,9.72
2019-02-09T17:39:23.328Z,9.70
2019-02-09T17:41:55.426Z,9.68
2019-02-09T17:44:27.715Z,9.66
2019-02-09T17:46:59.767Z,9.63
2019-02-09T17:49:31.893Z,9.61
2019-02-09T17:52:03.837Z,9.61
2019-02-09T17:54:36.120Z,9.63
2019-02-09T17:57:08.050Z,9.63
2019-02-09T17:59:39.962Z,9.64
2019-02-09T18:02:11.909Z,9.65
2019-02-09T18:04:48.476Z,9.66
2019-02-09T18:07:17.533Z,9.69
2019-02-09T18:09:49.481Z,9.71
2019-02-09T18:12:21.774Z,9.72
2019-02-09T18:14:54.054Z,9.74
2019-02-09T18:17:26.027Z,9.76
2019-02-09T18:19:58.064Z,9.78
2019-02-09T18:22:30.045Z,9.80
2019-02-09T18:25:02.015Z,9.80
2019-02-09T18:27:34.323Z,9.82
2019-02-09T18:30:19.241Z,9.83
2019-02-09T18:32:51.514Z,9.83
2019-02-09T18:35:24.625Z,9.83
2019-02-09T18:37:56.547Z,9.85
2019-02-09T18:40:29.075Z,9.87
2019-02-09T18:43:01.327Z,9.88
2019-02-09T18:45:34.459Z,9.89
2019-02-09T18:48:06.452Z,9.90
2019-02-09T18:50:38.482Z,9.91
2019-02-09T18:53:10.449Z,9.93
2019-02-09T18:55:42.368Z,9.93
2019-02-09T18:58:14.631Z,9.95
2019-02-09T19:00:46.619Z,9.92
2019-02-09T19:03:18.541Z,9.92
2019-02-09T19:05:50.443Z,9.92
2019-02-09T19:08:22.418Z,9.90
2019-02-09T19:10:54.457Z,9.88
2019-02-09T19:13:26.441Z,9.87
2019-02-09T19:15:58.357Z,9.86
2019-02-09T19:18:30.330Z,9.84
2019-02-09T19:21:02.349Z,9.82
2019-02-09T19:23:34.338Z,9.80
2019-02-09T19:26:06.250Z,9.78
2019-02-09T19:28:38.179Z,9.75
2019-02-09T19:31:10.130Z,9.72
2019-02-09T19:33:42.107Z,9.70
2019-02-09T19:36:14.095Z,9.68
2019-02-09T19:38:46.035Z,9.66
2019-02-09T19:41:18.232Z,9.64
2019-02-09T19:43:50.169Z,9.64
2019-02-09T19:46:22.097Z,9.64
2019-02-09T19:48:54.047Z,9.61
2019-02-09T19:51:25.967Z,9.61
2019-02-09T19:53:57.909Z,9.62
2019-02-09T19:56:29.834Z,9.62
2019-02-09T19:59:02.071Z,9.62
2019-02-09T20:01:34.006Z,9.62
2019-02-09T20:04:06.555Z,9.61
2019-02-09T20:06:38.497Z,9.61
2019-02-09T20:09:11.887Z,9.63
2019-02-09T20:11:43.810Z,9.62
2019-02-09T20:14:15.721Z,9.64
2019-02-09T20:21:08.038Z,9.57
2019-02-09T20:23:39.957Z,9.57
2019-02-09T20:26:11.874Z,9.57
2019-02-09T20:28:43.799Z,9.55
2019-02-09T20:31:15.725Z,9.52
2019-02-09T20:33:48.564Z,9.51
2019-02-09T20:36:20.478Z,9.48
2019-02-09T20:38:52.414Z,9.47
2019-02-09T20:41:24.402Z,9.45
2019-02-09T20:43:56.417Z,9.43
2019-02-09T20:46:28.370Z,9.41
2019-02-09T20:49:00.293Z,9.43
2019-02-09T20:51:32.283Z,9.42
2019-02-09T20:54:04.594Z,9.43
2019-02-09T20:56:36.510Z,9.42
2019-02-09T20:59:08.430Z,9.44
2019-02-09T21:01:40.364Z,9.47
2019-02-09T21:04:12.276Z,9.47
2019-02-09T21:06:44.220Z,9.48
2019-02-09T21:09:16.153Z,9.50
2019-02-09T21:11:48.343Z,9.53
2019-02-09T21:14:20.300Z,9.54
2019-02-09T21:16:52.299Z,9.56
2019-02-09T21:19:24.237Z,9.58
2019-02-09T21:21:56.151Z,9.57
2019-02-09T21:24:28.063Z,9.58
2019-02-09T21:26:59.974Z,9.60
2019-02-09T21:29:31.975Z,9.62
2019-02-09T21:32:03.888Z,9.63
2019-02-09T21:34:35.812Z,9.61
2019-02-09T21:37:07.753Z,9.62
2019-02-09T21:39:39.670Z,9.63
2019-02-09T21:42:11.651Z,9.63
2019-02-09T21:44:43.544Z,9.65
2019-02-09T21:47:15.474Z,9.64
2019-02-09T21:49:47.407Z,9.65
2019-02-09T21:52:19.428Z,9.67
2019-02-09T21:54:51.345Z,9.68
2019-02-09T21:57:23.267Z,9.69
2019-02-09T21:59:55.178Z,9.70
2019-02-09T22:02:27.117Z,9.69
2019-02-09T22:05:00.344Z,9.70
2019-02-09T22:07:32.426Z,9.71
2019-02-09T22:10:07.423Z,9.72
2019-02-09T22:12:39.408Z,9.73
2019-02-09T22:15:13.611Z,9.76
2019-02-09T22:17:46.389Z,9.76
2019-02-09T22:20:20.822Z,9.78
2019-02-09T22:22:53.779Z,9.78
2019-02-09T22:25:27.601Z,9.78
2019-02-09T22:27:59.788Z,9.78
2019-02-09T22:30:33.014Z,9.80
2019-02-09T22:33:05.341Z,9.80
2019-02-09T22:35:37.265Z,9.81
2019-02-09T22:38:09.190Z,9.82
2019-02-09T22:40:42.142Z,9.82
2019-02-09T22:43:14.448Z,9.82
2019-02-09T22:45:46.369Z,9.81
2019-02-09T22:48:18.375Z,9.81
2019-02-09T22:50:50.286Z,9.83
2019-02-09T22:53:22.205Z,9.83
2019-02-09T22:55:54.145Z,9.83
2019-02-09T22:58:26.062Z,9.83
2019-02-09T23:01:10.649Z,9.84
2019-02-09T23:04:02.481Z,9.82
2019-02-09T23:06:57.298Z,9.80
2019-02-09T23:09:29.302Z,9.80
2019-02-09T23:12:01.533Z,9.81
2019-02-09T23:14:34.124Z,9.80
2019-02-09T23:17:06.136Z,9.80
2019-02-09T23:19:38.037Z,9.79
2019-02-09T23:22:09.967Z,9.80
2019-02-09T23:24:41.911Z,9.79
2019-02-09T23:27:14.130Z,9.78
2019-02-09T23:29:46.395Z,9.78
2019-02-09T23:32:18.343Z,9.76
2019-02-09T23:34:50.261Z,9.71
2019-02-09T23:37:22.192Z,9.68
2019-02-09T23:39:54.211Z,9.68
2019-02-09T23:42:26.116Z,9.67
2019-02-09T23:44:58.488Z,9.67
2019-02-09T23:47:30.414Z,9.66
2019-02-09T23:50:02.326Z,9.65
2019-02-09T23:52:34.239Z,9.63
2019-02-09T23:55:08.484Z,9.62
2019-02-09T23:57:40.398Z,9.60
